Time;durP1;ratioP1;P1;durP2;ratioP2;P2;SDS_P1;SDS_P2;PMS_P1;PMS_P2;Temp;Humidity;BMP_temperature;BMP_pressure;BME280_temperature;BME280_humidity;BME280_pressure;Samples;Min_cycle;Max_cycle;Signal;HPM_P1;HPM_P2
2022/09/07 00:01:16;;;;;;;6.88;1.33;;;;;;;35.48;18.46;100555.63;5003049;28;20049;-80
2022/09/07 00:03:45;;;;;;;3.92;1.20;;;;;;;35.49;19.20;100548.44;5007426;28;20570;-78
2022/09/07 00:06:14;;;;;;;3.10;1.25;;;;;;;35.43;18.51;100545.22;5003310;28;20117;-77
2022/09/07 00:09:02;;;;;;;3.38;1.63;;;;;;;35.38;18.19;100544.75;5008209;28;20053;-78
2022/09/07 00:11:39;;;;;;;5.15;1.20;;;;;;;35.29;19.47;100534.69;5006657;28;20042;-81
2022/09/07 00:14:14;;;;;;;1.63;1.10;;;;;;;35.37;20.53;100543.03;5002963;28;20056;-76
2022/09/07 00:16:43;;;;;;;1.73;1.33;;;;;;;35.39;20.16;100540.22;5007544;28;20185;-79
2022/09/07 00:19:12;;;;;;;4.80;1.35;;;;;;;35.38;19.80;100552.81;5007326;28;20566;-72
2022/09/07 00:21:40;;;;;;;1.70;1.15;;;;;;;35.38;19.79;100549.28;5006469;28;20451;-74
2022/09/07 00:24:10;;;;;;;2.80;1.40;;;;;;;35.35;19.28;100538.75;5005328;28;20514;-78
2022/09/07 00:26:39;;;;;;;3.42;1.20;;;;;;;35.32;18.91;100542.50;5001620;28;20047;-79
2022/09/07 00:29:07;;;;;;;5.65;1.50;;;;;;;35.32;20.31;100533.59;5003976;28;20499;-80
2022/09/07 00:31:36;;;;;;;3.20;1.33;;;;;;;35.26;18.80;100543.00;5003066;28;20188;-78
2022/09/07 00:34:05;;;;;;;8.85;1.73;;;;;;;35.24;19.22;100537.75;5007903;28;20541;-77
2022/09/07 00:36:33;;;;;;;6.50;1.30;;;;;;;35.30;19.09;100540.94;5007437;28;20042;-77
2022/09/07 00:39:04;;;;;;;3.88;1.50;;;;;;;35.29;20.99;100540.06;5009007;28;20522;-79
2022/09/07 00:41:34;;;;;;;2.35;1.40;;;;;;;35.17;20.22;100536.50;5000731;28;20057;-81
2022/09/07 00:44:35;;;;;;;5.57;1.42;;;;;;;35.01;20.64;100546.72;5005609;28;20049;-74
2022/09/07 00:47:04;;;;;;;4.43;1.20;;;;;;;34.88;20.55;100541.41;5000948;28;20515;-73
2022/09/07 00:49:34;;;;;;;3.78;1.50;;;;;;;34.88;20.01;100541.41;5005892;28;20046;-73
2022/09/07 00:52:04;;;;;;;3.17;1.25;;;;;;;34.86;20.51;100543.34;5008566;28;20232;-73
2022/09/07 00:54:37;;;;;;;2.45;1.25;;;;;;;34.83;21.43;100541.75;5007933;28;20062;-75
2022/09/07 00:57:08;;;;;;;5.68;1.20;;;;;;;34.77;21.26;100542.25;5004424;28;20514;-74
2022/09/07 00:59:43;;;;;;;4.20;1.40;;;;;;;34.66;20.21;100542.19;4985037;28;20058;-75
2022/09/07 01:02:15;;;;;;;2.25;1.10;;;;;;;34.59;20.46;100541.75;4987217;28;20053;-75
2022/09/07 01:04:43;;;;;;;4.30;1.30;;;;;;;34.54;19.73;100529.63;4990539;28;20101;-74
2022/09/07 01:07:12;;;;;;;5.20;2.05;;;;;;;34.48;21.99;100538.16;4985912;28;20636;-76
2022/09/07 01:09:42;;;;;;;4.53;2.00;;;;;;;34.37;21.46;100537.09;4992845;28;20186;-76
2022/09/07 01:12:12;;;;;;;5.05;1.73;;;;;;;34.33;21.40;100542.81;4993251;28;20676;-75
2022/09/07 01:14:44;;;;;;;3.17;1.60;;;;;;;34.27;23.11;100535.22;4986714;28;20097;-74
2022/09/07 01:17:21;;;;;;;2.67;1.27;;;;;;;34.18;22.58;100534.94;4989164;28;20125;-73
2022/09/07 01:20:16;;;;;;;3.00;1.48;;;;;;;34.10;23.16;100544.50;4984809;28;20601;-77
2022/09/07 01:23:15;;;;;;;3.50;1.48;;;;;;;33.99;23.07;100543.44;4985757;28;20046;-75
2022/09/07 01:25:54;;;;;;;3.17;1.55;;;;;;;33.88;22.02;100551.41;4989133;28;20052;-75
2022/09/07 01:28:26;;;;;;;4.97;1.77;;;;;;;33.80;22.87;100553.75;4986588;28;20057;-76
2022/09/07 01:30:57;;;;;;;2.97;1.20;;;;;;;33.72;21.36;100550.75;4987602;28;20105;-78
2022/09/07 01:33:33;;;;;;;;;;;;;;;33.64;23.73;100553.16;4989996;28;20051;-76
2022/09/07 01:36:14;;;;;;;2.33;1.20;;;;;;;33.53;22.66;100549.34;4986917;28;19932;-75
2022/09/07 01:38:47;;;;;;;4.13;1.55;;;;;;;33.45;22.62;100548.19;4991164;28;20495;-76
2022/09/07 01:41:22;;;;;;;3.30;1.50;;;;;;;33.37;22.23;100551.38;4993073;28;20109;-76
2022/09/07 01:43:56;;;;;;;3.92;1.60;;;;;;;33.27;21.46;100550.31;4989084;28;20512;-74
2022/09/07 01:46:29;;;;;;;2.33;2.13;;;;;;;33.18;22.12;100549.13;4984007;28;20056;-72
2022/09/07 01:49:03;;;;;;;5.78;1.83;;;;;;;33.08;21.86;100551.56;4984874;28;20468;-74
2022/09/07 01:51:35;;;;;;;1.42;1.23;;;;;;;32.96;21.92;100545.22;4987405;28;20484;-73
2022/09/07 01:54:11;;;;;;;4.65;1.15;;;;;;;32.91;23.34;100549.13;4988482;28;20105;-76
2022/09/07 01:56:45;;;;;;;3.55;1.35;;;;;;;32.84;25.68;100548.69;4988101;28;20136;-76
2022/09/07 01:59:24;;;;;;;5.88;1.10;;;;;;;32.75;26.25;100550.16;4993425;28;20075;-77
2022/09/07 02:01:58;;;;;;;5.80;1.40;;;;;;;32.63;26.57;100544.78;4983097;28;20043;-74
2022/09/07 02:04:31;;;;;;;4.85;1.30;;;;;;;32.52;26.32;100550.84;4986537;28;20050;-75
2022/09/07 02:07:06;;;;;;;7.25;1.40;;;;;;;32.34;26.25;100553.75;4979026;28;20081;-79
2022/09/07 02:09:40;;;;;;;4.75;1.25;;;;;;;32.20;27.73;100551.06;4989169;28;20049;-80
2022/09/07 02:12:15;;;;;;;2.55;1.17;;;;;;;32.08;27.88;100565.25;4983872;28;20065;-80
2022/09/07 02:14:51;;;;;;;5.25;1.10;;;;;;;31.99;27.96;100571.19;4982494;28;20061;-80
2022/09/07 02:17:23;;;;;;;2.40;1.35;;;;;;;31.90;29.44;100580.63;4983761;28;20086;-79
2022/09/07 02:19:55;;;;;;;3.25;1.80;;;;;;;31.76;28.45;100581.47;4985945;28;20594;-79
2022/09/07 02:22:29;;;;;;;6.20;1.27;;;;;;;31.61;29.69;100582.41;4980410;28;20132;-78
2022/09/07 02:25:02;;;;;;;4.05;1.30;;;;;;;31.46;29.63;100595.78;4986505;28;20042;-80
2022/09/07 02:27:38;;;;;;;3.78;1.10;;;;;;;31.30;29.52;100595.81;4980895;28;20109;-74
2022/09/07 02:30:10;;;;;;;4.72;1.10;;;;;;;31.16;30.43;100592.25;4988192;28;20553;-74
2022/09/07 02:32:39;;;;;;;5.72;1.00;;;;;;;31.03;30.28;100594.75;4986350;28;20050;-75
2022/09/07 02:35:08;;;;;;;4.15;1.30;;;;;;;30.91;30.68;100593.66;4985487;28;20527;-76
2022/09/07 02:37:39;;;;;;;4.50;1.05;;;;;;;30.78;31.02;100597.97;4983838;28;20062;-76
2022/09/07 02:40:08;;;;;;;7.50;1.40;;;;;;;30.62;31.27;100588.16;4981276;28;20097;-74
2022/09/07 02:42:38;;;;;;;4.97;1.45;;;;;;;30.45;31.48;100590.94;4983855;28;20046;-75
2022/09/07 02:45:12;;;;;;;6.75;1.38;;;;;;;30.29;31.98;100590.06;4979511;28;20046;-75
2022/09/07 02:47:57;;;;;;;3.55;1.00;;;;;;;30.16;31.55;100589.84;4983472;28;20061;-75
2022/09/07 02:50:41;;;;;;;4.28;1.30;;;;;;;30.02;31.91;100587.94;4984868;28;20073;-75
2022/09/07 02:53:29;;;;;;;14.13;1.58;;;;;;;29.86;32.28;100594.09;4982377;28;20054;-75
2022/09/07 02:56:10;;;;;;;6.57;1.65;;;;;;;29.73;33.39;100598.34;4987415;28;20050;-74
2022/09/07 02:58:50;;;;;;;10.90;1.80;;;;;;;29.56;33.26;100598.34;4993388;28;20105;-75
2022/09/07 03:01:33;;;;;;;10.30;1.60;;;;;;;29.43;33.05;100601.63;4987279;28;20379;-75
2022/09/07 03:04:11;;;;;;;8.05;1.60;;;;;;;29.30;33.36;100603.22;4988542;28;20050;-76
2022/09/07 03:06:42;;;;;;;5.70;1.45;;;;;;;29.21;33.43;100601.03;4981894;28;20472;-75
2022/09/07 03:09:15;;;;;;;6.40;1.38;;;;;;;29.13;33.19;100603.22;4985243;28;20638;-75
2022/09/07 03:11:44;;;;;;;5.43;1.45;;;;;;;29.03;33.32;100608.97;4990356;28;20054;-75
2022/09/07 03:14:17;;;;;;;4.18;1.40;;;;;;;28.94;33.00;100609.44;4989105;28;20050;-76
2022/09/07 03:16:48;;;;;;;6.32;1.40;;;;;;;28.79;32.10;100607.50;4987882;28;20057;-74
2022/09/07 03:19:17;;;;;;;4.43;1.60;;;;;;;28.66;32.27;100620.56;4991124;28;20037;-75
2022/09/07 03:21:46;;;;;;;1.45;1.27;;;;;;;28.56;32.13;100625.44;4988014;28;20055;-75
2022/09/07 03:24:14;;;;;;;2.85;1.40;;;;;;;28.49;32.00;100624.03;4987711;28;20092;-74
2022/09/07 03:26:47;;;;;;;3.30;1.65;;;;;;;28.39;32.70;100633.34;4990806;28;20058;-75
2022/09/07 03:29:16;;;;;;;2.08;1.23;;;;;;;28.28;33.14;100617.03;4991170;28;20058;-75
2022/09/07 03:31:46;;;;;;;6.28;1.10;;;;;;;28.22;31.51;100636.78;4991881;28;20046;-77
2022/09/07 03:34:14;;;;;;;2.20;1.10;;;;;;;28.13;31.60;100638.09;4997871;28;20050;-77
2022/09/07 03:36:43;;;;;;;2.20;1.35;;;;;;;28.00;32.68;100623.59;4988845;28;20065;-79
2022/09/07 03:39:13;;;;;;;4.30;1.33;;;;;;;28.02;33.08;100642.16;4997493;28;20518;-77
2022/09/07 03:41:41;;;;;;;2.13;0.90;;;;;;;27.95;32.47;100644.22;4996895;28;20510;-77
2022/09/07 03:44:10;;;;;;;2.15;1.02;;;;;;;27.88;31.64;100651.63;4990200;28;20050;-80
2022/09/07 03:46:39;;;;;;;2.88;1.20;;;;;;;27.88;31.51;100664.06;4997651;28;20050;-82
2022/09/07 03:49:09;;;;;;;5.03;1.10;;;;;;;27.89;31.64;100663.09;4998506;28;20109;-79
2022/09/07 03:51:37;;;;;;;2.08;1.27;;;;;;;27.92;31.93;100676.25;4994117;28;20125;-79
2022/09/07 03:54:06;;;;;;;1.70;1.10;;;;;;;27.93;30.79;100680.66;4997261;28;20054;-84
2022/09/07 03:56:34;;;;;;;1.60;0.80;;;;;;;28.00;31.37;100684.78;4989319;28;20102;-79
2022/09/07 03:59:03;;;;;;;3.38;1.23;;;;;;;28.07;32.58;100685.38;4992349;28;20050;-79
2022/09/07 04:01:32;;;;;;;7.18;1.33;;;;;;;28.07;30.76;100693.34;4988295;28;20062;-78
2022/09/07 04:04:02;;;;;;;1.27;0.85;;;;;;;28.07;31.12;100690.69;4979424;28;20057;-80
2022/09/07 04:06:33;;;;;;;1.48;0.90;;;;;;;28.07;31.72;100685.38;4991972;28;20053;-78
2022/09/07 04:09:04;;;;;;;2.60;0.90;;;;;;;28.04;31.39;100697.00;4988623;28;20412;-76
2022/09/07 04:11:32;;;;;;;6.03;1.40;;;;;;;28.01;31.16;100680.31;4986689;28;20739;-74
2022/09/07 04:14:01;;;;;;;3.47;1.15;;;;;;;27.99;31.85;100696.31;4995638;28;20050;-76
2022/09/07 04:16:30;;;;;;;2.35;1.00;;;;;;;27.96;32.09;100693.81;4989794;28;20081;-73
2022/09/07 04:18:58;;;;;;;4.05;1.08;;;;;;;27.92;32.50;100702.84;4983937;28;20114;-77
2022/09/07 04:21:28;;;;;;;1.40;0.88;;;;;;;27.85;32.42;100704.91;4991692;28;20145;-77
2022/09/07 04:23:59;;;;;;;2.13;1.00;;;;;;;27.77;32.48;100693.72;4985521;28;20099;-77
2022/09/07 04:26:30;;;;;;;2.40;1.20;;;;;;;27.70;33.39;100701.09;4986704;28;20791;-75
2022/09/07 04:28:59;;;;;;;2.03;0.85;;;;;;;27.66;34.04;100706.63;4993106;28;20132;-74
2022/09/07 04:31:28;;;;;;;3.10;1.00;;;;;;;27.58;33.12;100704.28;4990463;28;20046;-75
2022/09/07 04:33:57;;;;;;;3.67;1.05;;;;;;;27.56;33.69;100706.16;4987787;28;20097;-76
2022/09/07 04:36:25;;;;;;;1.42;1.00;;;;;;;27.51;33.55;100711.66;4981078;28;20062;-74
2022/09/07 04:38:59;;;;;;;1.00;0.90;;;;;;;27.44;33.79;100710.19;4987588;28;20060;-75
2022/09/07 04:41:29;;;;;;;2.55;0.90;;;;;;;27.40;33.82;100710.34;4986448;28;20288;-76
2022/09/07 04:44:00;;;;;;;1.67;0.88;;;;;;;27.34;34.89;100714.97;4990683;28;20106;-76
2022/09/07 04:46:32;;;;;;;1.00;0.57;;;;;;;27.22;34.31;100717.28;4993374;28;20042;-77
2022/09/07 04:49:00;;;;;;;;;;;;;;;27.16;34.09;100711.25;4986754;28;21215;-77
2022/09/07 04:51:31;;;;;;;2.28;1.00;;;;;;;27.15;34.30;100721.94;4991095;28;19929;-78
2022/09/07 04:54:02;;;;;;;2.47;1.25;;;;;;;27.13;34.48;100729.13;4992653;28;20046;-77
2022/09/07 04:56:32;;;;;;;4.32;0.93;;;;;;;27.08;34.58;100725.78;4991996;28;20138;-77
2022/09/07 04:59:01;;;;;;;3.65;1.05;;;;;;;27.00;34.68;100727.88;4991067;28;20080;-78
2022/09/07 05:01:30;;;;;;;2.97;0.80;;;;;;;26.94;34.85;100724.53;4984727;28;20054;-76
2022/09/07 05:04:01;;;;;;;2.30;0.90;;;;;;;26.86;34.68;100720.44;4991296;28;20053;-76
2022/09/07 05:06:30;;;;;;;2.17;0.95;;;;;;;26.78;34.94;100726.06;4986238;28;20527;-77
2022/09/07 05:09:01;;;;;;;2.28;0.80;;;;;;;26.72;35.53;100719.19;4990278;28;20518;-76
2022/09/07 05:11:30;;;;;;;2.25;1.05;;;;;;;26.67;35.13;100725.59;4985352;28;20047;-80
2022/09/07 05:14:05;;;;;;;1.30;0.90;;;;;;;26.64;35.85;100731.00;4987333;28;20065;-78
2022/09/07 05:16:34;;;;;;;2.45;0.93;;;;;;;26.61;35.49;100733.78;4985881;28;20061;-77
2022/09/07 05:19:04;;;;;;;2.45;1.05;;;;;;;26.51;35.80;100731.44;4990668;28;20054;-81
2022/09/07 05:21:34;;;;;;;1.63;0.90;;;;;;;26.40;36.03;100736.28;4986847;28;20109;-77
2022/09/07 05:24:05;;;;;;;2.58;0.82;;;;;;;26.34;35.80;100733.81;4982704;28;20050;-77
2022/09/07 05:26:36;;;;;;;4.18;1.00;;;;;;;26.26;35.83;100725.31;4985263;28;20050;-80
2022/09/07 05:29:06;;;;;;;2.35;0.90;;;;;;;26.21;36.92;100735.22;4986008;28;20057;-78
2022/09/07 05:31:42;;;;;;;1.50;0.75;;;;;;;26.13;36.14;100728.38;4982526;28;20093;-79
2022/09/07 05:34:10;;;;;;;6.45;1.75;;;;;;;26.11;36.13;100722.28;4988776;28;20042;-78
2022/09/07 05:36:39;;;;;;;0.85;0.68;;;;;;;26.10;36.67;100719.69;4991824;28;20098;-78
2022/09/07 05:39:09;;;;;;;1.15;0.70;;;;;;;26.07;36.97;100730.41;4984000;28;20447;-77
2022/09/07 05:41:38;;;;;;;1.15;0.60;;;;;;;26.05;36.64;100733.09;4989943;28;20050;-78
2022/09/07 05:44:07;;;;;;;2.33;0.90;;;;;;;26.00;36.84;100724.44;4991517;28;20050;-78
2022/09/07 05:46:35;;;;;;;1.85;0.82;;;;;;;25.97;37.33;100735.16;4989789;28;20049;-78
2022/09/07 05:49:04;;;;;;;1.70;0.70;;;;;;;25.96;36.96;100741.38;4991425;28;20058;-78
2022/09/07 05:51:32;;;;;;;5.78;1.23;;;;;;;25.94;36.98;100735.25;4991625;28;20443;-81
2022/09/07 05:54:01;;;;;;;2.35;0.90;;;;;;;25.93;36.68;100746.78;4993100;28;20492;-79
2022/09/07 05:56:34;;;;;;;1.55;0.82;;;;;;;25.81;37.09;100728.59;4990336;28;20562;-77
2022/09/07 05:59:02;;;;;;;1.90;0.82;;;;;;;25.87;37.14;100749.66;5002588;28;20049;-78
2022/09/07 06:01:31;;;;;;;3.97;1.00;;;;;;;25.84;36.79;100750.59;5007627;28;20053;-77
2022/09/07 06:03:59;;;;;;;3.40;1.00;;;;;;;25.80;37.26;100748.94;5004000;28;20557;-78
2022/09/07 06:06:28;;;;;;;2.15;1.05;;;;;;;25.76;36.99;100744.66;5001994;28;20045;-79
2022/09/07 06:08:57;;;;;;;1.92;0.75;;;;;;;25.73;37.13;100747.44;5004979;28;20096;-77
2022/09/07 06:11:27;;;;;;;3.33;0.80;;;;;;;25.69;37.41;100751.09;5002759;28;20479;-78
2022/09/07 06:13:57;;;;;;;1.83;0.90;;;;;;;25.63;37.31;100754.84;5000560;28;20060;-77
2022/09/07 06:16:25;;;;;;;3.20;0.82;;;;;;;25.58;37.97;100753.22;5004985;28;20069;-77
2022/09/07 06:18:54;;;;;;;1.60;1.00;;;;;;;25.54;38.02;100757.78;5004861;28;20069;-77
2022/09/07 06:21:24;;;;;;;1.88;0.75;;;;;;;25.48;38.59;100747.38;4998127;28;20121;-77
2022/09/07 06:23:53;;;;;;;2.00;1.17;;;;;;;25.44;38.62;100753.69;5005443;28;20042;-77
2022/09/07 06:26:21;;;;;;;2.85;0.95;;;;;;;25.39;38.55;100760.91;5013371;28;20057;-78
2022/09/07 06:28:50;;;;;;;1.75;1.02;;;;;;;25.36;38.94;100758.34;5001858;28;20531;-76
2022/09/07 06:31:22;;;;;;;2.00;0.80;;;;;;;25.32;38.78;100759.38;5008427;28;20050;-77
2022/09/07 06:33:51;;;;;;;3.38;2.00;;;;;;;25.26;38.74;100756.00;4997207;28;20045;-77
2022/09/07 06:36:21;;;;;;;2.33;1.00;;;;;;;25.20;38.53;100758.84;5000592;28;20057;-76
2022/09/07 06:38:50;;;;;;;2.05;0.88;;;;;;;25.08;39.04;100751.22;4999575;28;20443;-77
2022/09/07 06:41:21;;;;;;;2.05;1.23;;;;;;;25.03;38.81;100753.16;5000625;28;20046;-76
2022/09/07 06:43:50;;;;;;;2.20;0.90;;;;;;;24.96;39.13;100747.19;5004070;28;20113;-76
2022/09/07 06:46:20;;;;;;;2.88;1.20;;;;;;;24.87;38.80;100761.56;5006586;28;20060;-76
2022/09/07 06:48:48;;;;;;;3.10;1.00;;;;;;;24.78;38.77;100764.47;5014885;28;20593;-76
2022/09/07 06:51:18;;;;;;;4.75;1.00;;;;;;;24.73;39.25;100763.75;5009432;28;20507;-75
2022/09/07 06:53:47;;;;;;;1.83;1.00;;;;;;;24.60;40.00;100768.53;5011739;28;20077;-78
2022/09/07 06:56:17;;;;;;;1.85;1.00;;;;;;;24.52;42.71;100769.66;5008689;28;20049;-78
2022/09/07 06:58:46;;;;;;;2.28;1.10;;;;;;;24.41;41.79;100767.28;5006053;28;20076;-76
2022/09/07 07:01:16;;;;;;;2.05;0.80;;;;;;;24.33;42.18;100774.56;4987076;28;20513;-75
2022/09/07 07:03:47;;;;;;;2.10;0.77;;;;;;;24.23;42.30;100774.81;4982047;28;20046;-76
2022/09/07 07:06:15;;;;;;;1.48;1.00;;;;;;;24.18;43.48;100770.53;4982460;28;20062;-78
2022/09/07 07:08:44;;;;;;;2.63;0.90;;;;;;;24.12;42.65;100773.34;4984643;28;20051;-77
2022/09/07 07:11:13;;;;;;;4.43;0.98;;;;;;;24.09;42.16;100768.16;4991611;28;20050;-77
2022/09/07 07:13:43;;;;;;;5.80;1.00;;;;;;;24.07;41.89;100769.97;4991540;28;20504;-76
2022/09/07 07:16:13;;;;;;;2.00;0.98;;;;;;;24.01;41.39;100774.50;5003230;28;20046;-75
2022/09/07 07:18:43;;;;;;;2.20;1.00;;;;;;;23.96;41.31;100773.75;4995223;28;20046;-75
2022/09/07 07:21:15;;;;;;;2.22;0.90;;;;;;;23.90;41.95;100773.91;4993964;28;20046;-75
2022/09/07 07:23:44;;;;;;;2.78;1.10;;;;;;;23.83;41.96;100774.97;4988606;28;20673;-76
2022/09/07 07:26:14;;;;;;;1.95;1.08;;;;;;;23.76;43.00;100783.97;4986659;28;20054;-76
2022/09/07 07:28:44;;;;;;;3.25;0.98;;;;;;;23.71;42.10;100791.09;4988299;28;20054;-75
2022/09/07 07:31:13;;;;;;;7.13;1.17;;;;;;;23.65;42.47;100793.88;4990000;28;20072;-76
2022/09/07 07:33:42;;;;;;;3.50;1.00;;;;;;;23.59;43.06;100798.41;4992827;28;20057;-76
2022/09/07 07:36:14;;;;;;;2.63;1.02;;;;;;;23.50;42.67;100803.03;4990347;28;20051;-76
2022/09/07 07:38:44;;;;;;;2.17;1.10;;;;;;;23.42;43.20;100801.44;4992482;28;20058;-76
2022/09/07 07:41:13;;;;;;;2.75;1.08;;;;;;;23.36;43.02;100811.25;4998256;28;20516;-77
2022/09/07 07:43:41;;;;;;;1.55;1.00;;;;;;;23.27;43.05;100822.03;4993018;28;20062;-75
2022/09/07 07:46:13;;;;;;;2.55;1.02;;;;;;;23.14;43.83;100822.31;4988478;28;20042;-77
2022/09/07 07:48:42;;;;;;;11.10;1.88;;;;;;;23.07;46.52;100820.72;4987272;28;20087;-77
2022/09/07 07:51:12;;;;;;;9.43;1.90;;;;;;;22.97;47.66;100821.75;4979316;28;20046;-77
2022/09/07 07:53:43;;;;;;;7.45;1.83;;;;;;;22.87;47.70;100825.50;4991755;28;20046;-77
2022/09/07 07:56:12;;;;;;;6.85;1.90;;;;;;;22.80;48.38;100830.03;4975795;28;20134;-77
2022/09/07 07:58:44;;;;;;;4.07;2.10;;;;;;;22.66;49.17;100819.75;5000154;28;20074;-77
2022/09/07 08:01:13;;;;;;;;;;;;;;;22.54;49.54;100827.88;5003589;28;20050;-76
2022/09/07 08:03:44;;;;;;;8.85;2.45;;;;;;;22.47;49.74;100834.16;5002667;28;20528;-76
2022/09/07 08:06:15;;;;;;;8.48;1.90;;;;;;;22.42;50.21;100828.09;5000277;28;20050;-78
2022/09/07 08:08:45;;;;;;;5.60;1.83;;;;;;;22.35;49.82;100828.22;5006714;28;20523;-77
2022/09/07 08:11:16;;;;;;;4.30;1.92;;;;;;;22.28;50.28;100834.50;5010153;28;20045;-77
2022/09/07 08:13:46;;;;;;;4.10;1.90;;;;;;;22.21;50.54;100824.97;5005760;28;20085;-76
2022/09/07 08:16:15;;;;;;;5.07;1.80;;;;;;;22.11;50.86;100826.84;5005169;28;20101;-76
2022/09/07 08:18:44;;;;;;;4.90;1.80;;;;;;;22.06;50.72;100825.19;5009719;28;20056;-77
2022/09/07 08:21:16;;;;;;;4.20;1.65;;;;;;;22.01;51.05;100811.22;5005921;28;20128;-77
2022/09/07 08:23:45;;;;;;;8.90;1.80;;;;;;;21.95;51.13;100820.97;5008270;28;20042;-76
2022/09/07 08:26:13;;;;;;;6.90;1.80;;;;;;;21.87;51.24;100828.13;5002691;28;20050;-76
2022/09/07 08:28:45;;;;;;;6.45;2.08;;;;;;;21.81;51.40;100827.38;5012737;28;20494;-77
2022/09/07 08:31:15;;;;;;;7.28;1.52;;;;;;;21.70;52.43;100824.91;5004306;28;20046;-76
2022/09/07 08:33:44;;;;;;;4.05;1.80;;;;;;;21.53;54.72;100833.91;5012834;28;20046;-76
2022/09/07 08:36:16;;;;;;;4.97;1.80;;;;;;;21.31;55.50;100842.97;5010250;28;20053;-78
2022/09/07 08:38:45;;;;;;;7.20;1.98;;;;;;;21.19;56.21;100848.38;5003781;28;20078;-76
2022/09/07 08:41:49;;;;;;;10.02;2.00;;;;;;;21.13;55.70;100855.47;5003824;28;20045;-76
2022/09/07 08:44:23;;;;;;;6.22;2.05;;;;;;;21.08;56.08;100845.91;5001056;28;20053;-77
2022/09/07 08:46:56;;;;;;;8.02;2.08;;;;;;;20.97;56.17;100850.41;5012943;28;20057;-76
2022/09/07 08:49:32;;;;;;;4.40;1.92;;;;;;;20.93;55.89;100852.19;5003846;28;20097;-77
2022/09/07 08:52:06;;;;;;;5.82;1.90;;;;;;;20.92;56.00;100858.38;5011090;28;20085;-76
2022/09/07 08:54:35;;;;;;;4.22;2.00;;;;;;;20.91;56.24;100860.13;5007793;28;20052;-77
2022/09/07 08:57:04;;;;;;;7.82;1.95;;;;;;;20.89;55.88;100861.91;5011283;28;20054;-76
2022/09/07 08:59:41;;;;;;;9.43;2.20;;;;;;;20.84;56.85;100862.81;5001575;28;20054;-77
2022/09/07 09:02:14;;;;;;;8.52;2.10;;;;;;;20.74;57.01;100869.97;5004405;28;20054;-75
2022/09/07 09:04:43;;;;;;;4.38;2.08;;;;;;;20.70;57.02;100869.09;5000663;28;20141;-77
2022/09/07 09:07:23;;;;;;;6.32;2.10;;;;;;;20.70;57.04;100866.47;5003885;28;20062;-75
2022/09/07 09:10:22;;;;;;;9.68;1.90;;;;;;;20.70;56.93;100870.88;5003987;28;20054;-76
2022/09/07 09:13:02;;;;;;;4.55;1.65;;;;;;;20.63;58.34;100867.44;4987385;28;20510;-76
2022/09/07 09:15:45;;;;;;;6.88;1.90;;;;;;;20.55;58.76;100868.34;5001241;28;20531;-76
2022/09/07 09:18:28;;;;;;;5.82;1.77;;;;;;;20.51;58.34;100875.41;4998479;28;20073;-76
2022/09/07 09:20:58;;;;;;;6.18;2.13;;;;;;;20.49;57.94;100871.94;4997143;28;20507;-75
2022/09/07 09:23:31;;;;;;;10.52;2.30;;;;;;;20.40;58.50;100872.88;5000358;28;20054;-75
2022/09/07 09:26:05;;;;;;;4.32;2.22;;;;;;;20.38;58.48;100879.03;4998505;28;20585;-75
2022/09/07 09:28:33;;;;;;;8.90;2.38;;;;;;;20.35;58.69;100876.44;4996887;28;20062;-76
2022/09/07 09:31:02;;;;;;;4.00;1.92;;;;;;;20.39;58.78;100878.16;5006796;28;20117;-76
2022/09/07 09:33:30;;;;;;;7.38;2.20;;;;;;;20.37;58.47;100867.66;5010964;28;20061;-76
2022/09/07 09:36:01;;;;;;;9.02;2.80;;;;;;;20.35;58.09;100873.81;5001368;28;20042;-75
2022/09/07 09:38:38;;;;;;;5.72;2.17;;;;;;;20.32;58.82;100879.97;5003155;28;20042;-76
2022/09/07 09:41:08;;;;;;;7.60;2.08;;;;;;;20.28;58.27;100883.50;5004906;28;20089;-75
2022/09/07 09:43:47;;;;;;;6.70;2.10;;;;;;;20.23;58.67;100872.19;5006899;28;20904;-75
2022/09/07 09:46:21;;;;;;;8.75;1.80;;;;;;;20.21;59.60;100872.19;5004400;28;20787;-77
2022/09/07 09:48:56;;;;;;;5.60;1.80;;;;;;;20.18;59.79;100877.47;5011101;28;20057;-76
2022/09/07 09:51:28;;;;;;;5.32;1.83;;;;;;;20.13;59.73;100887.13;5008323;28;20101;-76
2022/09/07 09:54:04;;;;;;;5.40;2.10;;;;;;;20.09;60.31;100888.91;5003591;28;20164;-75
2022/09/07 09:56:41;;;;;;;5.75;1.90;;;;;;;20.06;60.09;100883.66;5004668;28;20047;-74
2022/09/07 09:59:23;;;;;;;5.72;2.25;;;;;;;20.02;59.67;100894.19;5007039;28;20054;-76
2022/09/07 10:01:52;;;;;;;7.50;2.08;;;;;;;20.00;60.16;100903.88;5001285;28;20696;-76
2022/09/07 10:04:30;;;;;;;11.00;2.47;;;;;;;19.98;60.25;100908.25;5001525;28;20050;-75
2022/09/07 10:07:07;;;;;;;6.15;2.33;;;;;;;19.87;60.47;100913.56;5007634;28;20846;-76
2022/09/07 10:09:40;;;;;;;8.32;2.25;;;;;;;19.84;60.78;100885.59;5001971;28;20046;-76
2022/09/07 10:12:08;;;;;;;;;;;;;;;19.78;61.43;100867.25;5004085;28;20058;-75
2022/09/07 10:14:44;;;;;;;5.85;1.98;;;;;;;19.73;61.46;100882.16;5002482;28;19933;-76
2022/09/07 10:17:15;;;;;;;6.03;1.65;;;;;;;19.61;62.89;100890.09;5005441;28;20050;-76
2022/09/07 10:19:44;;;;;;;3.95;1.55;;;;;;;19.55;62.40;100896.22;4996933;28;20046;-77
2022/09/07 10:22:30;;;;;;;5.07;2.00;;;;;;;19.51;61.92;100904.97;5009422;28;20097;-76
2022/09/07 10:25:01;;;;;;;5.13;2.22;;;;;;;19.50;61.63;100919.00;5006459;28;20566;-77
2022/09/07 10:27:33;;;;;;;4.28;1.60;;;;;;;19.51;61.42;100930.38;5001667;28;20087;-76
2022/09/07 10:30:03;;;;;;;6.00;2.22;;;;;;;19.44;63.86;100926.88;5004098;28;20049;-78
2022/09/07 10:32:42;;;;;;;4.20;2.08;;;;;;;19.32;65.05;100930.44;5008399;28;20046;-77
2022/09/07 10:35:18;;;;;;;7.47;2.10;;;;;;;19.16;64.77;100929.63;5004732;28;20050;-78
2022/09/07 10:37:56;;;;;;;6.82;2.83;;;;;;;19.22;63.63;100944.47;5010073;28;20588;-78
2022/09/07 10:40:32;;;;;;;4.40;1.60;;;;;;;19.22;63.34;100911.25;5006413;28;20136;-77
2022/09/07 10:43:15;;;;;;;1.98;1.40;;;;;;;19.21;62.19;100919.09;5009281;28;20053;-77
2022/09/07 10:46:02;;;;;;;6.22;1.90;;;;;;;19.20;62.17;100931.34;5008087;28;20046;-77
2022/09/07 10:48:38;;;;;;;7.70;1.80;;;;;;;19.21;61.99;100906.00;5007588;28;20063;-79
2022/09/07 10:51:17;;;;;;;5.35;1.88;;;;;;;19.17;63.42;100909.50;5006255;28;20045;-76
2022/09/07 10:53:53;;;;;;;4.38;1.50;;;;;;;19.13;63.40;100928.78;5009441;28;20096;-78
2022/09/07 10:56:27;;;;;;;4.97;1.70;;;;;;;19.11;62.87;100952.38;5010043;28;20045;-78
2022/09/07 10:59:18;;;;;;;3.80;1.85;;;;;;;19.10;62.07;100961.09;5005394;28;20156;-76
2022/09/07 11:01:58;;;;;;;3.90;1.70;;;;;;;19.08;61.33;100973.38;4989200;28;20493;-76
2022/09/07 11:04:53;;;;;;;4.32;1.65;;;;;;;19.01;61.55;100980.38;4988214;28;20065;-78
2022/09/07 11:07:39;;;;;;;6.13;2.17;;;;;;;18.95;62.86;100983.00;4985297;28;20105;-77
2022/09/07 11:10:19;;;;;;;7.90;2.20;;;;;;;18.89;63.56;100993.47;4980160;28;20110;-76
2022/09/07 11:12:52;;;;;;;5.95;2.40;;;;;;;18.87;65.96;100979.50;4980633;28;20054;-77
2022/09/07 11:15:25;;;;;;;8.93;2.63;;;;;;;18.86;68.37;100969.91;4986567;28;20129;-77
2022/09/07 11:18:00;;;;;;;8.75;2.28;;;;;;;18.84;69.34;100962.03;4990546;28;20058;-77
2022/09/07 11:20:32;;;;;;;11.50;2.42;;;;;;;18.81;70.40;100969.91;4989015;28;20658;-76
2022/09/07 11:23:13;;;;;;;12.63;2.50;;;;;;;18.79;69.68;100976.03;4987370;28;20058;-76
2022/09/07 11:25:47;;;;;;;8.23;2.58;;;;;;;18.77;70.12;100983.00;4989061;28;20042;-78
2022/09/07 11:28:23;;;;;;;9.98;2.38;;;;;;;18.75;69.92;100984.72;4987876;28;20141;-76
2022/09/07 11:30:57;;;;;;;5.28;2.10;;;;;;;18.75;69.41;100987.34;4991666;28;20125;-77
2022/09/07 11:33:30;;;;;;;9.68;2.35;;;;;;;18.70;69.45;100989.09;4987446;28;20043;-78
2022/09/07 11:36:03;;;;;;;8.75;2.35;;;;;;;18.68;70.13;100989.09;4984859;28;20039;-77
2022/09/07 11:38:36;;;;;;;7.75;2.65;;;;;;;18.61;70.92;101003.06;4987916;28;20046;-77
2022/09/07 11:41:22;;;;;;;8.38;3.03;;;;;;;18.59;71.29;101003.06;4982721;28;20424;-77
2022/09/07 11:44:02;;;;;;;11.07;3.03;;;;;;;18.56;70.93;100996.97;4996868;28;20097;-77
2022/09/07 11:46:38;;;;;;;10.57;3.35;;;;;;;18.54;71.56;100996.09;4991314;28;20102;-77
2022/09/07 11:49:11;;;;;;;9.13;3.15;;;;;;;18.50;71.49;101010.91;4985905;28;20042;-76
2022/09/07 11:51:43;;;;;;;11.18;2.97;;;;;;;18.44;71.25;101000.44;4985017;28;20543;-77